Time;durP1;ratioP1;P1;durP2;ratioP2;P2;SDS_P1;SDS_P2;PMS_P1;PMS_P2;Temp;Humidity;BMP_temperature;BMP_pressure;BME280_temperature;BME280_humidity;BME280_pressure;Samples;Min_cycle;Max_cycle;Signal;HPM_P1;HPM_P2
2024/02/03 00:02:00;;;;;;;2.43;2.20;;;6.40;44.80;;;;;;4955814;29;20180;-68
2024/02/03 00:04:25;;;;;;;2.00;1.87;;;6.40;48.60;;;;;;4955732;29;20542;-68
2024/02/03 00:06:51;;;;;;;1.93;1.57;;;6.40;51.40;;;;;;4955547;29;20180;-68
2024/02/03 00:09:16;;;;;;;3.50;1.83;;;6.40;53.10;;;;;;4955556;29;20197;-68
2024/02/03 00:11:46;;;;;;;1.90;1.80;;;6.30;55.10;;;;;;4955686;29;20181;-68
2024/02/03 00:14:12;;;;;;;2.17;2.00;;;6.30;50.90;;;;;;4955494;29;20287;-68
2024/02/03 00:16:37;;;;;;;2.23;1.80;;;6.20;55.10;;;;;;4955221;29;20428;-68
2024/02/03 00:19:03;;;;;;;1.80;1.70;;;6.20;54.70;;;;;;4955466;29;20554;-68
2024/02/03 00:21:28;;;;;;;2.17;2.00;;;6.20;53.60;;;;;;4955305;28;20592;-68
2024/02/03 00:23:54;;;;;;;2.27;2.07;;;6.20;53.70;;;;;;4955251;29;20576;-68
2024/02/03 00:26:19;;;;;;;2.03;1.87;;;6.10;53.20;;;;;;4955267;29;20204;-68
2024/02/03 00:28:45;;;;;;;3.17;1.93;;;6.10;54.00;;;;;;4955054;29;20263;-68
2024/02/03 00:31:10;;;;;;;2.10;2.00;;;6.10;55.30;;;;;;4937962;29;20255;-68
2024/02/03 00:33:36;;;;;;;2.47;2.20;;;6.10;54.90;;;;;;4955276;29;20244;-68
2024/02/03 00:36:02;;;;;;;1.90;1.80;;;6.00;52.60;;;;;;4955164;29;20224;-68
2024/02/03 00:38:27;;;;;;;2.40;2.00;;;6.10;52.00;;;;;;4954867;29;20218;-68
2024/02/03 00:40:54;;;;;;;2.30;2.10;;;6.10;51.10;;;;;;4955010;29;21090;-68
2024/02/03 00:43:20;;;;;;;2.13;1.93;;;6.20;48.30;;;;;;4955045;29;20169;-68
2024/02/03 00:45:46;;;;;;;2.00;1.90;;;6.20;48.00;;;;;;4955115;29;20429;-68
2024/02/03 00:48:11;;;;;;;1.50;1.40;;;6.20;46.30;;;;;;4954608;29;20436;-68
2024/02/03 00:50:37;;;;;;;2.17;2.07;;;6.10;47.20;;;;;;4954859;29;20201;-68
2024/02/03 00:53:03;;;;;;;2.07;1.97;;;6.10;46.50;;;;;;4954930;29;20252;-68
2024/02/03 00:55:28;;;;;;;4.73;2.33;;;6.10;47.80;;;;;;4954797;29;20173;-68
2024/02/03 00:57:54;;;;;;;2.00;1.80;;;6.10;54.90;;;;;;4954543;29;20165;-68
2024/02/03 01:00:23;;;;;;;2.63;2.43;;;6.20;56.40;;;;;;4954743;29;20197;-68
2024/02/03 01:02:49;;;;;;;3.80;2.77;;;6.00;72.10;;;;;;4954858;29;20172;-68
2024/02/03 01:05:15;;;;;;;3.90;2.30;;;6.00;72.50;;;;;;4954814;29;20424;-68
2024/02/03 01:07:40;;;;;;;2.30;2.10;;;5.90;74.80;;;;;;4954367;29;20424;-68
2024/02/03 01:10:06;;;;;;;3.43;3.00;;;5.80;74.60;;;;;;4954720;29;20199;-68
2024/02/03 01:12:32;;;;;;;2.50;1.73;;;5.70;79.80;;;;;;4954607;29;20177;-68
2024/02/03 01:14:57;;;;;;;2.03;1.83;;;5.60;84.10;;;;;;4954393;29;20467;-68
2024/02/03 01:17:23;;;;;;;1.93;1.67;;;5.50;92.70;;;;;;4954443;29;20177;-68
2024/02/03 01:19:48;;;;;;;2.63;2.43;;;5.40;97.40;;;;;;4954512;29;20273;-68
2024/02/03 01:22:14;;;;;;;3.60;2.70;;;5.40;97.30;;;;;;4954542;29;20192;-68
2024/02/03 01:24:39;;;;;;;2.43;2.07;;;5.30;99.90;;;;;;4954336;29;20181;-68
2024/02/03 01:27:05;;;;;;;2.27;2.07;;;5.20;99.90;;;;;;4954280;29;20180;-68
2024/02/03 01:29:30;;;;;;;1.90;1.80;;;5.20;99.90;;;;;;4972255;23;20200;-73
2024/02/03 01:31:56;;;;;;;2.03;1.77;;;5.10;99.90;;;;;;4984445;28;20183;-74
2024/02/03 01:34:22;;;;;;;3.40;2.50;;;5.10;99.90;;;;;;4992863;28;20208;-73
2024/02/03 01:36:47;;;;;;;2.50;1.80;;;5.10;99.90;;;;;;4992718;28;20215;-73
2024/02/03 01:39:13;;;;;;;2.43;1.80;;;5.10;99.90;;;;;;4992895;28;20637;-74
2024/02/03 01:41:38;;;;;;;2.90;2.70;;;5.10;99.90;;;;;;4992885;28;20637;-73
2024/02/03 01:44:04;;;;;;;1.57;1.47;;;5.10;99.90;;;;;;4992741;28;20226;-74
2024/02/03 01:46:29;;;;;;;1.90;1.70;;;5.20;99.90;;;;;;4992742;28;20178;-74
2024/02/03 01:48:56;;;;;;;3.43;2.27;;;5.10;99.90;;;;;;4992832;28;20175;-73
2024/02/03 01:51:24;;;;;;;4.30;2.63;;;5.00;99.90;;;;;;4992832;28;20191;-73
2024/02/03 01:53:50;;;;;;;2.60;2.40;;;4.90;99.90;;;;;;4992610;28;20446;-73
2024/02/03 01:56:18;;;;;;;3.53;2.37;;;4.80;99.90;;;;;;4992724;28;20789;-73
2024/02/03 01:58:44;;;;;;;2.57;1.90;;;4.70;99.90;;;;;;4975012;28;20419;-73
2024/02/03 02:01:11;;;;;;;2.50;1.83;;;4.70;99.90;;;;;;4992611;28;20445;-73
2024/02/03 02:03:37;;;;;;;1.83;1.70;;;4.80;99.90;;;;;;4992546;28;20172;-73
2024/02/03 02:06:03;;;;;;;2.77;1.70;;;4.80;99.90;;;;;;4992630;28;20411;-73
2024/02/03 02:08:36;;;;;;;4.00;2.13;;;4.80;99.90;;;;;;4992282;28;20287;-73
2024/02/03 02:11:02;;;;;;;3.17;2.30;;;4.90;99.90;;;;;;4975120;28;20445;-73
2024/02/03 02:13:28;;;;;;;2.63;2.13;;;4.90;99.90;;;;;;4992469;28;20454;-73
2024/02/03 02:15:53;;;;;;;3.23;2.10;;;4.90;99.90;;;;;;4992531;28;20422;-73
2024/02/03 02:18:19;;;;;;;1.90;1.70;;;4.90;99.90;;;;;;4992279;28;20548;-73
2024/02/03 02:20:44;;;;;;;2.17;1.73;;;4.90;99.90;;;;;;4992414;28;20216;-74
2024/02/03 02:23:10;;;;;;;1.60;1.50;;;4.80;99.90;;;;;;4992458;28;20613;-73
2024/02/03 02:25:36;;;;;;;2.63;2.00;;;4.70;99.90;;;;;;4992391;28;20168;-73
2024/02/03 02:28:01;;;;;;;2.07;1.77;;;4.70;99.90;;;;;;4992058;28;20214;-74
2024/02/03 02:30:27;;;;;;;1.60;1.50;;;4.70;99.90;;;;;;4992218;28;20207;-73
2024/02/03 02:32:53;;;;;;;2.43;1.70;;;4.70;99.90;;;;;;4992390;28;20171;-73
2024/02/03 02:35:18;;;;;;;1.83;1.70;;;4.70;99.90;;;;;;4992265;28;20199;-73
2024/02/03 02:37:44;;;;;;;1.60;1.47;;;4.70;99.90;;;;;;4992068;28;20419;-73
2024/02/03 02:40:11;;;;;;;1.17;1.07;;;4.80;99.90;;;;;;4992230;28;20196;-73
2024/02/03 02:42:37;;;;;;;1.60;1.50;;;4.80;99.90;;;;;;4992226;28;20202;-73
2024/02/03 02:45:03;;;;;;;2.60;1.50;;;4.80;99.90;;;;;;4994065;28;20454;-74
2024/02/03 02:47:28;;;;;;;1.70;1.60;;;4.80;99.90;;;;;;4995752;28;20179;-73
2024/02/03 02:49:54;;;;;;;1.37;1.20;;;4.90;99.90;;;;;;4995846;28;20438;-73
2024/02/03 02:52:19;;;;;;;1.27;1.10;;;4.90;99.90;;;;;;4995917;28;20262;-74
2024/02/03 02:54:45;;;;;;;1.57;1.43;;;5.00;99.90;;;;;;4995737;28;20242;-73
2024/02/03 02:57:10;;;;;;;1.67;1.50;;;5.00;99.90;;;;;;4995526;28;20203;-74
2024/02/03 02:59:36;;;;;;;1.30;1.00;;;5.00;99.90;;;;;;4995827;28;20194;-74
2024/02/03 03:02:02;;;;;;;1.33;1.23;;;5.00;99.90;;;;;;4995645;28;20588;-73
2024/02/03 03:04:28;;;;;;;1.70;1.60;;;5.10;99.90;;;;;;4995675;28;20948;-73
2024/02/03 03:06:53;;;;;;;1.73;1.63;;;5.10;99.90;;;;;;4995332;28;20418;-73
2024/02/03 03:09:19;;;;;;;2.00;1.10;;;5.00;99.90;;;;;;4995650;28;20588;-73
2024/02/03 03:11:44;;;;;;;1.50;1.40;;;5.00;99.90;;;;;;4995488;28;20172;-73
2024/02/03 03:14:11;;;;;;;1.80;1.43;;;4.90;99.90;;;;;;4995444;28;20199;-73
2024/02/03 03:16:37;;;;;;;2.23;1.60;;;4.90;99.90;;;;;;4995156;28;20172;-73
2024/02/03 03:19:02;;;;;;;2.00;1.47;;;4.90;99.90;;;;;;4995374;28;20513;-74
2024/02/03 03:21:28;;;;;;;2.50;1.67;;;4.90;99.90;;;;;;4995289;28;20191;-74
2024/02/03 03:23:53;;;;;;;1.70;1.60;;;4.90;99.90;;;;;;4975502;28;20185;-75
2024/02/03 03:26:19;;;;;;;1.30;1.20;;;4.90;99.90;;;;;;4956397;29;20173;-75
2024/02/03 03:28:44;;;;;;;2.30;1.90;;;4.80;99.90;;;;;;4956357;29;20208;-75
2024/02/03 03:31:10;;;;;;;2.40;2.20;;;4.70;99.90;;;;;;4956244;28;20331;-75
2024/02/03 03:33:35;;;;;;;1.83;1.50;;;4.70;99.90;;;;;;4956183;29;20662;-75
2024/02/03 03:36:01;;;;;;;1.67;1.57;;;4.70;99.90;;;;;;4956223;29;20678;-74
2024/02/03 03:38:27;;;;;;;1.93;1.83;;;4.60;99.90;;;;;;4956167;29;20507;-74
2024/02/03 03:40:53;;;;;;;1.60;1.50;;;4.60;99.90;;;;;;4956210;28;20189;-75
2024/02/03 03:43:18;;;;;;;2.67;2.00;;;4.70;99.90;;;;;;4956092;28;20483;-75
2024/02/03 03:45:44;;;;;;;2.00;1.60;;;4.70;99.90;;;;;;4956212;29;20183;-75
2024/02/03 03:48:09;;;;;;;3.83;1.73;;;4.70;99.90;;;;;;4955057;28;20272;-73
2024/02/03 03:50:35;;;;;;;1.60;1.50;;;4.70;99.90;;;;;;4955422;29;20247;-74
2024/02/03 03:53:00;;;;;;;3.60;2.30;;;4.70;99.90;;;;;;4956054;29;20224;-74
2024/02/03 03:55:26;;;;;;;2.27;2.07;;;4.70;99.90;;;;;;4955492;28;20173;-74
2024/02/03 03:57:51;;;;;;;4.00;2.30;;;4.60;99.90;;;;;;4955642;29;20655;-74
2024/02/03 04:00:17;;;;;;;2.30;2.10;;;4.60;99.90;;;;;;4955837;29;20280;-74
2024/02/03 04:02:43;;;;;;;1.57;1.47;;;4.60;99.90;;;;;;4956051;29;20173;-74
2024/02/03 04:05:09;;;;;;;1.73;1.30;;;4.50;99.90;;;;;;4955708;29;20420;-74
2024/02/03 04:07:35;;;;;;;2.30;1.73;;;4.50;99.90;;;;;;4955594;29;20173;-74
2024/02/03 04:10:00;;;;;;;1.97;1.77;;;4.50;99.90;;;;;;4955681;29;20949;-74
2024/02/03 04:12:26;;;;;;;2.90;1.83;;;4.50;99.90;;;;;;4955650;29;20184;-74
2024/02/03 04:14:51;;;;;;;1.83;1.50;;;4.60;99.90;;;;;;4955638;29;20189;-74
2024/02/03 04:17:17;;;;;;;1.60;1.50;;;4.60;99.90;;;;;;4955234;29;20172;-74
2024/02/03 04:19:43;;;;;;;2.20;1.97;;;4.60;99.90;;;;;;4955372;29;20199;-74
2024/02/03 04:22:12;;;;;;;2.90;2.10;;;4.50;99.90;;;;;;4955702;29;20825;-74
2024/02/03 04:24:38;;;;;;;2.10;1.93;;;4.50;99.90;;;;;;4955649;29;20173;-75
2024/02/03 04:27:04;;;;;;;2.80;2.13;;;4.50;99.90;;;;;;4955121;29;20487;-74
2024/02/03 04:29:29;;;;;;;3.67;3.23;;;4.50;99.90;;;;;;4955173;29;20954;-74
2024/02/03 04:31:55;;;;;;;2.30;1.63;;;4.40;99.90;;;;;;4955442;29;20409;-74
2024/02/03 04:34:20;;;;;;;1.80;1.60;;;4.40;99.90;;;;;;4955173;29;20205;-74
2024/02/03 04:36:46;;;;;;;1.87;1.77;;;4.40;99.90;;;;;;4954899;29;20173;-74
2024/02/03 04:39:13;;;;;;;2.57;2.13;;;4.30;99.90;;;;;;4955274;29;20173;-74
2024/02/03 04:41:38;;;;;;;2.20;2.00;;;4.30;99.90;;;;;;4955308;29;20473;-73
2024/02/03 04:44:04;;;;;;;1.77;1.67;;;4.20;99.90;;;;;;4955026;29;20456;-74
2024/02/03 04:46:30;;;;;;;2.37;2.20;;;4.20;99.90;;;;;;4954738;29;20200;-74
2024/02/03 04:48:55;;;;;;;2.00;1.90;;;4.10;99.90;;;;;;4954891;29;20710;-73
2024/02/03 04:51:21;;;;;;;1.77;1.67;;;4.10;99.90;;;;;;4955009;29;20638;-74
2024/02/03 04:53:46;;;;;;;1.90;1.80;;;4.20;99.90;;;;;;4954888;29;20205;-74
2024/02/03 04:56:12;;;;;;;1.90;1.80;;;4.10;99.90;;;;;;4955027;29;20256;-74
2024/02/03 04:58:37;;;;;;;2.40;1.90;;;4.00;99.90;;;;;;4937472;29;20192;-73
2024/02/03 05:01:04;;;;;;;2.03;1.90;;;4.00;99.90;;;;;;4954873;29;20204;-72
2024/02/03 05:03:31;;;;;;;2.53;2.33;;;4.00;99.90;;;;;;4954917;29;20665;-73
2024/02/03 05:06:04;;;;;;;2.17;1.90;;;4.00;99.90;;;;;;4954666;29;20424;-74
2024/02/03 05:08:34;;;;;;;1.93;1.83;;;4.00;99.90;;;;;;4953652;28;20435;-74
2024/02/03 05:11:00;;;;;;;2.22;1.90;;;3.90;99.90;;;;;;4954084;29;20971;-73
2024/02/03 05:13:26;;;;;;;2.43;2.23;;;3.80;99.90;;;;;;4937230;29;20299;-71
2024/02/03 05:15:52;;;;;;;3.00;1.83;;;3.80;99.90;;;;;;4954621;29;20260;-73
2024/02/03 05:18:17;;;;;;;2.50;2.40;;;3.80;99.90;;;;;;4954165;29;20177;-73
2024/02/03 05:20:43;;;;;;;2.57;2.37;;;3.90;99.90;;;;;;4954550;29;20444;-72
2024/02/03 05:23:08;;;;;;;2.83;1.73;;;3.80;99.90;;;;;;4954217;29;20294;-72
2024/02/03 05:25:34;;;;;;;2.60;1.70;;;3.90;99.90;;;;;;4954414;29;20197;-72
2024/02/03 05:27:59;;;;;;;1.47;1.37;;;3.90;99.90;;;;;;4954102;29;20204;-73
2024/02/03 05:30:25;;;;;;;1.53;1.43;;;3.90;99.90;;;;;;4954169;29;20639;-72
2024/02/03 05:32:51;;;;;;;2.90;2.10;;;3.90;99.90;;;;;;4954448;29;20197;-72
2024/02/03 05:35:16;;;;;;;2.00;1.90;;;3.80;99.90;;;;;;4936961;29;20204;-72
2024/02/03 05:37:42;;;;;;;2.57;2.37;;;3.60;99.90;;;;;;4953939;29;20177;-72
2024/02/03 05:40:08;;;;;;;2.10;1.90;;;3.60;99.90;;;;;;4954323;29;20200;-73
2024/02/03 05:42:33;;;;;;;4.27;1.93;;;3.60;99.90;;;;;;4954163;29;20224;-72
2024/02/03 05:44:59;;;;;;;1.53;1.43;;;3.60;99.90;;;;;;4954124;29;20785;-72
2024/02/03 05:47:25;;;;;;;1.80;1.70;;;3.60;99.90;;;;;;4953843;29;20601;-73
2024/02/03 05:49:51;;;;;;;2.23;2.03;;;3.60;99.90;;;;;;4954097;29;20200;-71
2024/02/03 05:52:17;;;;;;;1.97;1.87;;;3.50;99.90;;;;;;4954026;29;20436;-71
2024/02/03 05:54:42;;;;;;;2.70;2.50;;;3.50;99.90;;;;;;4954047;29;20595;-71
2024/02/03 05:57:12;;;;;;;2.50;1.63;;;3.50;99.90;;;;;;4953873;29;20642;-72
2024/02/03 05:59:37;;;;;;;2.50;2.30;;;3.50;99.90;;;;;;4953867;29;20184;-71
2024/02/03 06:02:03;;;;;;;2.17;1.80;;;3.60;99.90;;;;;;4954026;29;20447;-72
2024/02/03 06:04:29;;;;;;;2.37;2.17;;;3.50;99.90;;;;;;4954060;29;20251;-71
2024/02/03 06:06:54;;;;;;;2.23;2.03;;;3.60;99.90;;;;;;4953619;29;20177;-71
2024/02/03 06:09:20;;;;;;;2.40;2.20;;;3.60;99.90;;;;;;4953906;29;20654;-71
2024/02/03 06:11:45;;;;;;;2.20;2.03;;;3.70;99.90;;;;;;4954002;29;20181;-72
2024/02/03 06:14:11;;;;;;;3.23;2.30;;;3.60;99.90;;;;;;4953940;29;20677;-72
2024/02/03 06:16:36;;;;;;;2.63;2.40;;;3.60;99.90;;;;;;4953631;29;20181;-72
2024/02/03 06:19:02;;;;;;;2.50;2.30;;;3.50;99.90;;;;;;4955690;28;20220;-71
2024/02/03 06:21:28;;;;;;;9.77;7.63;;;3.50;99.90;;;;;;4940508;29;20203;-73
2024/02/03 06:23:53;;;;;;;3.43;3.13;;;3.50;99.90;;;;;;4957211;29;20260;-73
2024/02/03 06:26:19;;;;;;;3.13;2.83;;;3.50;99.90;;;;;;4957695;29;20177;-71
2024/02/03 06:28:44;;;;;;;2.93;2.53;;;3.50;99.90;;;;;;4957463;29;20181;-72
2024/02/03 06:31:10;;;;;;;3.50;3.20;;;3.50;99.90;;;;;;4957447;29;20592;-71
2024/02/03 06:33:36;;;;;;;3.10;2.80;;;3.50;99.90;;;;;;4957370;29;20213;-71
2024/02/03 06:36:01;;;;;;;3.67;3.30;;;3.50;99.90;;;;;;4957456;29;20471;-71
2024/02/03 06:38:28;;;;;;;7.80;5.13;;;3.40;99.90;;;;;;4957181;29;20173;-72
2024/02/03 06:40:54;;;;;;;5.57;3.93;;;3.30;99.90;;;;;;4957503;29;20228;-74
2024/02/03 06:43:20;;;;;;;4.23;3.60;;;3.30;99.90;;;;;;4957428;29;20435;-71
2024/02/03 06:45:45;;;;;;;4.17;3.30;;;3.30;99.90;;;;;;4940269;29;20428;-71
2024/02/03 06:48:11;;;;;;;3.53;3.23;;;3.30;99.90;;;;;;4957016;29;20528;-72
2024/02/03 06:50:37;;;;;;;5.33;4.50;;;3.30;99.90;;;;;;4957287;29;20564;-72
2024/02/03 06:53:03;;;;;;;4.17;3.77;;;3.20;99.90;;;;;;4957222;29;20602;-72
2024/02/03 06:55:28;;;;;;;4.50;4.07;;;3.30;99.90;;;;;;4939761;29;20547;-72
2024/02/03 06:57:54;;;;;;;3.67;3.30;;;3.30;99.90;;;;;;4956901;29;20208;-73
2024/02/03 07:00:20;;;;;;;3.67;3.10;;;3.30;99.90;;;;;;4956916;29;20276;-73
2024/02/03 07:02:45;;;;;;;4.13;3.47;;;3.20;99.90;;;;;;4957220;29;20765;-73
2024/02/03 07:05:11;;;;;;;5.73;3.30;;;3.20;99.90;;;;;;4957024;29;20181;-74
2024/02/03 07:07:36;;;;;;;4.23;3.23;;;3.20;99.90;;;;;;4956633;29;20181;-73
2024/02/03 07:10:02;;;;;;;4.00;3.00;;;3.30;99.90;;;;;;4956796;29;20542;-74
2024/02/03 07:12:27;;;;;;;4.20;3.80;;;3.30;99.90;;;;;;4956920;29;20216;-74
2024/02/03 07:14:53;;;;;;;3.63;3.33;;;3.40;99.90;;;;;;4956746;29;20570;-73
2024/02/03 07:17:19;;;;;;;5.47;4.10;;;3.50;99.90;;;;;;4956252;29;20230;-74
2024/02/03 07:19:44;;;;;;;7.70;4.70;;;3.60;99.90;;;;;;4956557;29;20528;-73
2024/02/03 07:22:10;;;;;;;9.77;5.40;;;3.70;99.90;;;;;;4956693;29;20180;-73
2024/02/03 07:24:39;;;;;;;8.23;4.33;;;3.80;99.90;;;;;;4956200;29;20173;-74
2024/02/03 07:27:05;;;;;;;5.93;4.63;;;4.00;99.90;;;;;;4956479;29;20589;-73
2024/02/03 07:29:30;;;;;;;5.33;4.80;;;4.30;99.90;;;;;;4956059;28;20624;-73
2024/02/03 07:32:00;;;;;;;10.17;7.60;;;4.50;99.90;;;;;;4956403;29;20526;-73
2024/02/03 07:34:26;;;;;;;5.13;4.50;;;4.80;99.90;;;;;;4956249;29;20295;-72
2024/02/03 07:36:52;;;;;;;8.87;7.17;;;5.10;99.90;;;;;;4956210;29;20424;-72
2024/02/03 07:39:18;;;;;;;16.30;9.73;;;5.40;99.90;;;;;;4939254;29;21161;-72
2024/02/03 07:41:43;;;;;;;9.73;6.87;;;5.70;99.90;;;;;;4939110;29;20635;-72
2024/02/03 07:44:09;;;;;;;9.03;5.67;;;6.10;99.90;;;;;;4939170;29;20823;-73
2024/02/03 07:46:34;;;;;;;9.87;4.40;;;6.50;99.90;;;;;;4955946;29;20700;-73
2024/02/03 07:49:00;;;;;;;9.50;5.00;;;7.00;99.90;;;;;;4956181;29;20177;-72
2024/02/03 07:51:25;;;;;;;8.10;6.43;;;7.40;99.90;;;;;;4956048;29;20280;-72
2024/02/03 07:53:51;;;;;;;8.37;4.80;;;7.80;95.20;;;;;;4956064;29;20197;-72
2024/02/03 07:56:16;;;;;;;6.30;5.00;;;8.20;90.10;;;;;;4956026;29;20638;-72
2024/02/03 07:58:42;;;;;;;6.13;5.30;;;8.60;86.40;;;;;;4955864;29;20166;-72
2024/02/03 08:01:07;;;;;;;12.83;7.50;;;9.30;59.60;;;;;;4955880;29;20197;-72
2024/02/03 08:03:33;;;;;;;9.97;6.40;;;10.00;40.10;;;;;;4955880;29;20236;-72
2024/02/03 08:06:00;;;;;;;8.20;7.13;;;10.50;20.80;;;;;;4955811;29;20228;-72
2024/02/03 08:08:25;;;;;;;7.37;6.50;;;10.80;16.40;;;;;;4955617;29;20573;-72
2024/02/03 08:10:51;;;;;;;7.97;7.17;;;11.10;9.40;;;;;;4955604;29;20436;-72
2024/02/03 08:13:17;;;;;;;7.90;7.20;;;11.30;1.00;;;;;;4955566;29;20212;-72
2024/02/03 08:15:42;;;;;;;12.67;7.10;;;11.90;1.00;;;;;;4955669;29;20640;-72
2024/02/03 08:18:08;;;;;;;7.50;6.90;;;12.30;1.00;;;;;;4955427;29;20177;-72
2024/02/03 08:20:34;;;;;;;7.00;6.40;;;12.70;1.00;;;;;;4955556;29;20263;-72
2024/02/03 08:22:59;;;;;;;7.90;6.43;;;13.10;1.00;;;;;;4955526;29;20165;-72
2024/02/03 08:25:26;;;;;;;6.93;6.40;;;13.20;1.00;;;;;;4955517;29;20427;-72
2024/02/03 08:27:51;;;;;;;8.67;6.90;;;13.40;1.00;;;;;;4955102;29;20647;-72
2024/02/03 08:30:17;;;;;;;8.13;7.40;;;13.50;1.00;;;;;;4955083;29;20507;-72
2024/02/03 08:32:42;;;;;;;10.03;8.17;;;13.60;1.00;;;;;;4955467;29;20265;-73
2024/02/03 08:35:08;;;;;;;8.53;7.80;;;13.40;1.00;;;;;;4955175;29;20200;-72
2024/02/03 08:37:33;;;;;;;8.77;7.93;;;13.90;1.00;;;;;;4954943;29;20176;-72
2024/02/03 08:39:59;;;;;;;6.87;6.27;;;13.90;1.00;;;;;;4955211;29;20224;-72
2024/02/03 08:42:26;;;;;;;7.60;6.90;;;13.80;1.00;;;;;;4953250;28;20239;-72
2024/02/03 08:44:51;;;;;;;7.60;6.90;;;13.80;1.00;;;;;;4971432;28;20186;-72
2024/02/03 08:47:17;;;;;;;7.77;7.07;;;13.60;1.00;;;;;;4973965;28;20423;-72
2024/02/03 08:49:52;;;;;;;9.50;7.80;;;13.20;1.00;;;;;;4973893;28;20196;-72
2024/02/03 08:52:18;;;;;;;6.40;5.83;;;12.50;1.00;;;;;;4974107;28;20179;-72
2024/02/03 08:54:44;;;;;;;6.77;6.17;;;11.90;1.00;;;;;;4974030;28;20455;-72
2024/02/03 08:57:10;;;;;;;7.87;5.70;;;11.50;1.00;;;;;;4973852;28;20192;-73
2024/02/03 08:59:36;;;;;;;9.43;7.73;;;11.00;5.70;;;;;;4974134;28;20515;-72
2024/02/03 09:02:01;;;;;;;9.90;8.80;;;10.80;15.50;;;;;;4962935;28;20634;-75
2024/02/03 09:04:27;;;;;;;10.43;8.83;;;10.40;28.20;;;;;;4954906;29;20254;-73
2024/02/03 09:06:52;;;;;;;10.93;9.83;;;10.20;34.60;;;;;;4971678;28;20180;-74
2024/02/03 09:09:18;;;;;;;10.33;8.27;;;10.00;43.50;;;;;;4973018;28;20180;-75
2024/02/03 09:11:44;;;;;;;7.23;6.27;;;10.00;47.30;;;;;;4973812;28;20204;-75
2024/02/03 09:14:09;;;;;;;6.17;5.63;;;9.90;52.10;;;;;;4973447;28;20612;-74
2024/02/03 09:16:35;;;;;;;7.80;6.13;;;9.70;63.70;;;;;;4973443;28;20419;-74
2024/02/03 09:19:00;;;;;;;8.30;6.90;;;9.70;71.70;;;;;;4973688;28;20191;-74
2024/02/03 09:21:26;;;;;;;6.63;5.30;;;9.70;74.60;;;;;;4973828;28;20283;-74
2024/02/03 09:23:51;;;;;;;7.13;6.07;;;9.60;91.60;;;;;;4972888;28;20176;-73
2024/02/03 09:26:17;;;;;;;5.90;5.27;;;9.40;94.80;;;;;;4973584;28;20254;-74
2024/02/03 09:28:42;;;;;;;5.93;5.30;;;9.30;98.70;;;;;;4973054;28;20176;-74
2024/02/03 09:31:08;;;;;;;6.33;5.73;;;9.30;99.70;;;;;;4973363;28;20697;-73
2024/02/03 09:33:33;;;;;;;6.03;5.43;;;9.10;99.90;;;;;;4972931;28;20203;-73
2024/02/03 09:36:02;;;;;;;6.33;5.60;;;9.20;99.90;;;;;;4973567;28;20191;-74
2024/02/03 09:38:27;;;;;;;6.23;5.63;;;9.20;99.90;;;;;;4972990;28;20179;-73
2024/02/03 09:40:55;;;;;;;6.63;5.20;;;9.00;99.90;;;;;;4973504;28;20435;-73
2024/02/03 09:43:22;;;;;;;5.37;4.80;;;8.80;99.90;;;;;;4973243;28;20164;-75
2024/02/03 09:45:48;;;;;;;6.17;5.57;;;8.70;99.90;;;;;;4973431;28;20971;-75
2024/02/03 09:48:13;;;;;;;4.20;3.83;;;8.80;99.90;;;;;;4972677;28;20419;-74
2024/02/03 09:50:40;;;;;;;5.20;4.70;;;8.70;99.90;;;;;;4973212;28;20193;-75
2024/02/03 09:53:06;;;;;;;6.13;5.60;;;8.80;99.90;;;;;;4972973;28;20169;-75
2024/02/03 09:55:32;;;;;;;5.90;4.50;;;8.90;99.90;;;;;;4973218;28;20454;-75
2024/02/03 09:57:59;;;;;;;7.20;6.53;;;9.00;99.90;;;;;;4972948;28;20791;-75
2024/02/03 10:00:25;;;;;;;4.53;4.03;;;9.10;99.90;;;;;;4955874;28;20662;-75
2024/02/03 10:02:51;;;;;;;4.40;3.53;;;9.30;99.90;;;;;;4973068;28;20491;-74
2024/02/03 10:05:28;;;;;;;5.90;5.30;;;9.30;99.90;;;;;;4961785;28;20511;-74
2024/02/03 10:08:05;;;;;;;6.20;3.90;;;9.10;99.90;;;;;;4956206;28;20181;-74
2024/02/03 10:10:33;;;;;;;5.17;4.70;;;9.20;99.90;;;;;;4953837;29;20444;-74
2024/02/03 10:13:07;;;;;;;3.53;3.20;;;9.20;99.90;;;;;;4953648;29;20452;-74
2024/02/03 10:15:33;;;;;;;3.77;3.47;;;9.40;99.90;;;;;;4936299;29;20460;-75
2024/02/03 10:17:59;;;;;;;3.73;3.43;;;9.50;99.90;;;;;;4953320;29;20421;-75
2024/02/03 10:20:28;;;;;;;4.27;3.97;;;9.60;99.90;;;;;;4954122;29;20434;-74
2024/02/03 10:22:54;;;;;;;4.07;3.40;;;9.70;99.90;;;;;;4953913;29;20663;-75
2024/02/03 10:25:31;;;;;;;3.97;3.07;;;9.70;99.90;;;;;;4953987;29;20424;-75
2024/02/03 10:28:04;;;;;;;3.60;3.30;;;9.60;99.90;;;;;;4953564;29;20430;-75
2024/02/03 10:30:31;;;;;;;4.00;3.17;;;9.80;99.90;;;;;;4953451;29;20464;-75
2024/02/03 10:33:03;;;;;;;5.03;4.40;;;9.60;99.90;;;;;;4953680;29;20427;-74
2024/02/03 10:35:33;;;;;;;3.70;3.10;;;9.40;99.90;;;;;;4953511;29;20448;-75
2024/02/03 10:37:59;;;;;;;3.40;3.10;;;9.30;99.90;;;;;;4953286;29;20479;-75
2024/02/03 10:40:27;;;;;;;4.03;3.57;;;9.40;99.90;;;;;;4953557;29;20444;-75
2024/02/03 10:42:54;;;;;;;3.40;3.10;;;9.20;99.90;;;;;;4953517;29;20416;-75
2024/02/03 10:45:27;;;;;;;5.77;3.90;;;9.50;99.90;;;;;;4953655;29;20431;-75
2024/02/03 10:47:55;;;;;;;9.00;3.33;;;9.50;99.90;;;;;;4953261;29;20429;-75
2024/02/03 10:50:23;;;;;;;4.03;3.63;;;9.50;99.90;;;;;;4953485;29;20511;-75
2024/02/03 10:52:52;;;;;;;3.70;3.30;;;9.60;99.90;;;;;;4953578;29;20435;-75
2024/02/03 10:55:21;;;;;;;4.20;3.67;;;9.80;99.90;;;;;;4953578;29;20625;-75
2024/02/03 10:57:47;;;;;;;3.80;3.50;;;9.80;99.90;;;;;;4953434;29;20425;-75
2024/02/03 11:00:17;;;;;;;4.00;3.70;;;9.90;99.90;;;;;;4953354;29;20606;-75
2024/02/03 11:02:53;;;;;;;5.57;4.67;;;10.00;99.90;;;;;;4953482;29;20944;-75
2024/02/03 11:05:25;;;;;;;4.60;3.70;;;9.80;99.90;;;;;;4953988;28;20415;-74
2024/02/03 11:07:51;;;;;;;5.40;4.90;;;9.70;99.90;;;;;;4965693;28;20546;-75
2024/02/03 11:10:38;;;;;;;5.23;4.80;;;9.70;99.90;;;;;;4974579;28;20530;-74
2024/02/03 11:13:23;;;;;;;3.70;3.33;;;9.70;99.90;;;;;;4970077;28;20188;-74
2024/02/03 11:15:58;;;;;;;5.30;4.73;;;10.00;99.90;;;;;;4973612;28;20519;-74
2024/02/03 11:18:24;;;;;;;3.97;3.57;;;10.20;96.90;;;;;;4975578;28;20441;-75
2024/02/03 11:20:50;;;;;;;4.00;3.70;;;10.30;94.90;;;;;;4975714;28;20514;-74
2024/02/03 11:23:15;;;;;;;4.90;3.80;;;10.20;94.30;;;;;;4975567;28;21010;-74
2024/02/03 11:25:46;;;;;;;4.73;3.97;;;10.30;96.90;;;;;;4975810;28;20641;-74
2024/02/03 11:28:12;;;;;;;4.90;4.37;;;10.40;92.00;;;;;;4957866;28;20177;-75
2024/02/03 11:30:38;;;;;;;4.60;4.20;;;10.30;92.70;;;;;;4956073;28;20522;-76
2024/02/03 11:33:07;;;;;;;4.40;4.00;;;10.20;95.90;;;;;;4971908;28;20925;-75
2024/02/03 11:35:33;;;;;;;4.57;4.00;;;10.40;92.90;;;;;;4975425;28;20534;-76
2024/02/03 11:38:06;;;;;;;5.13;4.10;;;10.40;92.40;;;;;;4975340;28;20475;-75
2024/02/03 11:40:32;;;;;;;4.37;3.63;;;10.50;92.70;;;;;;4975447;28;20340;-75
2024/02/03 11:42:58;;;;;;;5.33;3.70;;;10.60;90.80;;;;;;4975528;28;20547;-75
2024/02/03 11:45:29;;;;;;;3.03;2.83;;;10.60;82.60;;;;;;4975310;28;20176;-75
2024/02/03 11:47:55;;;;;;;3.87;3.57;;;10.60;86.30;;;;;;4975066;28;20179;-76
2024/02/03 11:50:20;;;;;;;3.53;3.23;;;10.60;89.40;;;;;;4975303;28;20447;-75
2024/02/03 11:52:46;;;;;;;3.40;3.10;;;10.50;87.90;;;;;;4975330;28;20181;-76
2024/02/03 11:55:12;;;;;;;3.03;2.83;;;10.30;93.20;;;;;;4973864;28;20562;-74
2024/02/03 11:57:37;;;;;;;3.37;3.07;;;10.40;93.30;;;;;;4971137;28;20665;-74
2024/02/03 12:00:06;;;;;;;3.23;2.93;;;10.60;87.70;;;;;;4966040;28;20238;-75
2024/02/03 12:02:32;;;;;;;4.43;3.77;;;10.70;85.40;;;;;;4971365;28;20227;-74
2024/02/03 12:04:58;;;;;;;3.27;2.97;;;10.70;90.30;;;;;;4974948;28;20419;-74
2024/02/03 12:07:24;;;;;;;3.40;3.10;;;10.80;62.50;;;;;;4961469;28;20204;-74
2024/02/03 12:09:50;;;;;;;2.87;2.67;;;10.90;39.40;;;;;;4955496;29;20441;-75
2024/02/03 12:12:16;;;;;;;3.27;2.97;;;11.00;30.80;;;;;;4955612;29;20424;-74
2024/02/03 12:14:41;;;;;;;3.23;2.93;;;11.30;22.10;;;;;;4955489;29;20448;-75
2024/02/03 12:17:09;;;;;;;2.77;2.53;;;11.50;18.60;;;;;;4970624;28;20172;-74
2024/02/03 12:19:38;;;;;;;4.33;3.93;;;11.70;7.00;;;;;;4961387;28;20211;-75
2024/02/03 12:22:04;;;;;;;2.80;2.50;;;12.20;1.00;;;;;;4955392;29;20475;-75
2024/02/03 12:24:30;;;;;;;3.83;3.53;;;14.20;1.00;;;;;;4955271;29;20817;-75
2024/02/03 12:26:56;;;;;;;3.40;3.20;;;16.30;99.90;;;;;;4955037;29;20658;-75
2024/02/03 12:29:23;;;;;;;3.30;3.03;;;17.90;1.00;;;;;;4955078;29;20507;-75
2024/02/03 12:31:49;;;;;;;2.87;2.67;;;18.10;99.90;;;;;;4955213;29;20184;-75
2024/02/03 12:34:17;;;;;;;2.80;2.10;;;18.10;1.00;;;;;;4954929;29;20456;-75
2024/02/03 12:36:42;;;;;;;3.27;2.30;;;17.90;99.90;;;;;;4954939;29;20690;-75
2024/02/03 12:39:11;;;;;;;2.90;2.70;;;20.00;1.00;;;;;;4954960;29;20456;-75
2024/02/03 12:41:37;;;;;;;2.03;1.87;;;22.80;83.10;;;;;;4955002;29;20169;-74
2024/02/03 12:44:02;;;;;;;1.60;1.50;;;21.40;77.10;;;;;;4955057;29;20434;-75
2024/02/03 12:46:30;;;;;;;1.60;1.50;;;22.40;74.90;;;;;;4954548;29;20635;-75
2024/02/03 12:48:55;;;;;;;3.93;1.37;;;22.60;68.40;;;;;;4954852;29;20227;-72
2024/02/03 12:51:21;;;;;;;1.30;1.20;;;25.40;59.80;;;;;;4964295;28;20498;-75